createdAt,value
2022-08-07T00:00:41.058Z,82.76
2022-08-07T00:02:37.414Z,83.24
2022-08-07T00:02:44.500Z,83.34
2022-08-07T00:03:40.916Z,83.43
2022-08-07T00:04:40.880Z,82.95
2022-08-07T00:05:40.814Z,83.76
2022-08-07T00:06:51.194Z,83.18
2022-08-07T00:07:41.622Z,83.28
2022-08-07T00:08:44.382Z,82.52
2022-08-07T00:09:40.594Z,82.61
2022-08-07T00:10:48.125Z,82.42
2022-08-07T00:11:53.996Z,82.23
2022-08-07T00:12:57.692Z,82.23
2022-08-07T00:13:40.494Z,82.52
2022-08-07T00:14:40.332Z,82.90
2022-08-07T00:15:46.385Z,83.14
2022-08-07T00:16:40.232Z,83.53
2022-08-07T00:17:40.179Z,83.24
2022-08-07T00:18:40.127Z,83.62
2022-08-07T00:20:00.884Z,84.10
2022-08-07T00:20:40.024Z,83.43
2022-08-07T00:21:57.053Z,83.62
2022-08-07T00:22:39.919Z,83.72
2022-08-07T00:23:40.234Z,82.95
2022-08-07T00:24:39.847Z,83.43
2022-08-07T00:25:41.457Z,83.53
2022-08-07T00:26:59.014Z,82.81
2022-08-07T00:27:52.150Z,82.95
2022-08-07T00:28:45.742Z,83.14
2022-08-07T00:29:39.576Z,82.71
2022-08-07T00:30:39.520Z,82.81
2022-08-07T00:31:42.103Z,82.42
2022-08-07T00:32:39.411Z,82.81
2022-08-07T00:33:39.362Z,82.48
2022-08-07T00:34:39.301Z,82.76
2022-08-07T00:35:39.268Z,82.86
2022-08-07T00:36:42.777Z,82.76
2022-08-07T00:37:47.835Z,83.62
2022-08-07T00:38:39.272Z,83.72
2022-08-07T00:39:45.050Z,83.24
2022-08-07T00:40:40.790Z,83.67
2022-08-07T00:41:53.035Z,83.81
2022-08-07T00:42:38.890Z,83.62
2022-08-07T00:43:59.194Z,83.24
2022-08-07T00:44:41.491Z,83.81
2022-08-07T00:45:38.755Z,83.62
2022-08-07T00:46:38.682Z,83.53
2022-08-07T00:48:09.948Z,84.10
2022-08-07T00:48:42.060Z,84.29
2022-08-07T00:50:20.419Z,83.81
2022-08-07T00:50:46.657Z,84.29
2022-08-07T00:51:56.443Z,83.72
2022-08-07T00:52:38.375Z,84.20
2022-08-07T00:53:50.476Z,84.67
2022-08-07T00:54:40.637Z,84.67
2022-08-07T00:56:03.131Z,84.96
2022-08-07T00:56:38.165Z,85.11
2022-08-07T00:57:38.111Z,85.30
2022-08-07T00:58:38.075Z,85.68
2022-08-07T00:59:38.028Z,85.21
2022-08-07T01:00:37.960Z,85.58
2022-08-07T01:01:44.239Z,85.68
2022-08-07T01:02:37.854Z,85.58
2022-08-07T01:03:55.980Z,85.77
2022-08-07T01:04:43.297Z,85.87
2022-08-07T01:05:37.697Z,85.87
2022-08-07T01:06:37.666Z,85.58
2022-08-07T01:07:37.594Z,85.58
2022-08-07T01:08:37.539Z,85.68
2022-08-07T01:10:04.403Z,86.35
2022-08-07T01:10:37.437Z,85.97
2022-08-07T01:12:23.356Z,85.68
2022-08-07T01:12:37.330Z,85.58
2022-08-07T01:13:37.281Z,85.58
2022-08-07T01:14:37.335Z,85.68
2022-08-07T01:16:05.538Z,85.58
2022-08-07T01:16:37.177Z,86.25
2022-08-07T01:17:37.074Z,86.25
2022-08-07T01:18:37.020Z,86.25
2022-08-07T01:19:38.407Z,85.97
2022-08-07T01:20:43.137Z,85.93
2022-08-07T01:21:37.046Z,86.16
2022-08-07T01:22:36.815Z,85.97
2022-08-07T01:23:40.078Z,86.25
2022-08-07T01:24:36.722Z,86.16
2022-08-07T01:25:55.176Z,86.25
2022-08-07T01:26:36.609Z,86.30
2022-08-07T01:27:36.991Z,86.98
2022-08-07T01:28:36.500Z,87.26
2022-08-07T01:29:36.462Z,87.16
2022-08-07T01:30:36.412Z,87.16
2022-08-07T01:31:42.430Z,87.45
2022-08-07T01:32:36.290Z,87.83
2022-08-07T01:33:56.218Z,88.40
2022-08-07T01:34:36.189Z,87.83
2022-08-07T01:35:53.505Z,88.02
2022-08-07T01:36:36.446Z,87.54
2022-08-07T01:37:36.031Z,86.98
2022-08-07T01:38:35.981Z,87.26
2022-08-07T01:39:39.512Z,86.78
2022-08-07T01:40:35.948Z,86.98
2022-08-07T01:41:35.829Z,87.16
2022-08-07T01:42:38.842Z,87.93
2022-08-07T01:43:38.228Z,88.02
2022-08-07T01:44:35.666Z,88.21
2022-08-07T01:45:37.211Z,88.17
2022-08-07T01:46:35.562Z,89.12
2022-08-07T01:48:20.484Z,89.31
2022-08-07T01:48:35.965Z,89.22
2022-08-07T01:49:35.405Z,88.74
2022-08-07T01:50:35.352Z,89.60
2022-08-07T01:52:02.706Z,89.40
2022-08-07T01:52:35.248Z,89.40
2022-08-07T01:54:00.784Z,89.50
2022-08-07T01:54:36.631Z,89.98
2022-08-07T01:55:35.091Z,89.50
2022-08-07T01:56:35.053Z,89.98
2022-08-07T01:58:05.774Z,89.40
2022-08-07T01:58:40.923Z,89.60
2022-08-07T01:59:34.885Z,89.69
2022-08-07T02:00:34.829Z,89.60
2022-08-07T02:01:59.756Z,90.08
2022-08-07T02:03:19.198Z,89.89
2022-08-07T02:03:48.863Z,90.08
2022-08-07T02:04:34.642Z,90.08
2022-08-07T02:05:43.147Z,89.98
2022-08-07T02:06:34.535Z,89.89
2022-08-07T02:07:44.871Z,89.60
2022-08-07T02:08:34.410Z,89.69
2022-08-07T02:09:52.708Z,90.26
2022-08-07T02:10:34.311Z,90.17
2022-08-07T02:12:04.696Z,89.79
2022-08-07T02:12:34.212Z,89.79
2022-08-07T02:13:56.591Z,89.79
2022-08-07T02:14:36.200Z,89.50
2022-08-07T02:15:34.247Z,89.64
2022-08-07T02:16:33.994Z,90.17
2022-08-07T02:17:34.761Z,89.79
2022-08-07T02:18:33.887Z,89.69
2022-08-07T02:20:07.470Z,89.69
2022-08-07T02:20:33.796Z,89.60
2022-08-07T02:21:55.075Z,90.08
2022-08-07T02:22:33.675Z,89.98
2022-08-07T02:23:35.835Z,89.98
2022-08-07T02:24:33.587Z,89.50
2022-08-07T02:26:31.081Z,89.89
2022-08-07T02:26:34.645Z,90.26
2022-08-07T02:27:34.838Z,90.26
2022-08-07T02:28:33.361Z,90.64
2022-08-07T02:29:34.403Z,90.26
2022-08-07T02:30:33.256Z,90.64
2022-08-07T02:31:33.218Z,90.55
2022-08-07T02:32:33.153Z,90.45
2022-08-07T02:33:57.496Z,91.03
2022-08-07T02:34:33.044Z,90.45
2022-08-07T02:36:29.500Z,90.17
2022-08-07T02:36:33.170Z,90.45
2022-08-07T02:37:34.123Z,89.79
2022-08-07T02:38:32.838Z,89.40
2022-08-07T02:39:43.323Z,89.60
2022-08-07T02:40:35.116Z,90.08
2022-08-07T02:41:33.428Z,89.40
2022-08-07T02:42:32.621Z,90.08
2022-08-07T02:43:32.570Z,89.98
2022-08-07T02:44:34.798Z,89.79
2022-08-07T02:46:00.917Z,89.89
2022-08-07T02:46:32.428Z,90.36
2022-08-07T02:47:40.147Z,89.89
2022-08-07T02:48:32.307Z,89.98
2022-08-07T02:49:58.592Z,89.89
2022-08-07T02:50:32.650Z,90.36
2022-08-07T02:51:42.491Z,90.55
2022-08-07T02:52:32.556Z,90.64
2022-08-07T02:53:34.008Z,90.55
2022-08-07T02:54:32.004Z,90.55
2022-08-07T02:56:03.082Z,91.22
2022-08-07T02:56:31.888Z,91.41
2022-08-07T02:57:35.035Z,91.41
2022-08-07T02:58:33.433Z,91.65
2022-08-07T02:59:31.725Z,91.60
2022-08-07T03:00:31.689Z,91.74
2022-08-07T03:01:36.311Z,91.41
2022-08-07T03:02:31.569Z,91.84
2022-08-07T03:03:49.643Z,92.03
2022-08-07T03:04:31.465Z,91.74
2022-08-07T03:05:35.981Z,91.74
2022-08-07T03:06:32.842Z,91.65
2022-08-07T03:07:43.317Z,91.69
2022-08-07T03:08:31.270Z,91.79
2022-08-07T03:09:42.368Z,91.60
2022-08-07T03:10:31.146Z,92.41
2022-08-07T03:11:32.703Z,92.41
2022-08-07T03:12:31.338Z,92.13
2022-08-07T03:13:30.986Z,92.13
2022-08-07T03:14:30.951Z,92.22
2022-08-07T03:15:56.792Z,92.03
2022-08-07T03:16:30.855Z,92.32
2022-08-07T03:17:30.955Z,92.13
2022-08-07T03:18:34.715Z,92.22
2022-08-07T03:19:37.278Z,92.03
2022-08-07T03:20:30.617Z,92.03
2022-08-07T03:21:32.847Z,92.50
2022-08-07T03:22:30.715Z,92.79
2022-08-07T03:23:34.127Z,92.03
2022-08-07T03:24:30.420Z,92.22
2022-08-07T03:25:32.439Z,92.50
2022-08-07T03:26:30.302Z,92.98
2022-08-07T03:27:59.359Z,92.69
2022-08-07T03:28:37.831Z,93.17
2022-08-07T03:29:30.156Z,92.32
2022-08-07T03:30:30.087Z,92.03
2022-08-07T03:31:42.688Z,92.13
2022-08-07T03:32:30.002Z,92.32
2022-08-07T03:33:32.321Z,92.22
2022-08-07T03:34:29.878Z,92.32
2022-08-07T03:35:37.967Z,92.69
2022-08-07T03:36:29.785Z,92.89
2022-08-07T03:37:32.522Z,92.79
2022-08-07T03:38:33.115Z,92.79
2022-08-07T03:39:59.245Z,92.98
2022-08-07T03:40:36.235Z,92.89
2022-08-07T03:41:41.722Z,92.79
2022-08-07T03:42:29.451Z,92.50
2022-08-07T03:43:32.224Z,93.17
2022-08-07T03:44:31.853Z,93.17
2022-08-07T03:45:30.951Z,93.27
2022-08-07T03:46:29.238Z,93.51
2022-08-07T03:47:29.553Z,92.94
2022-08-07T03:48:29.690Z,93.27
2022-08-07T03:49:29.081Z,93.08
2022-08-07T03:50:29.136Z,93.37
2022-08-07T03:51:30.906Z,93.27
2022-08-07T03:52:28.920Z,93.08
2022-08-07T03:53:50.205Z,93.55
2022-08-07T03:54:35.525Z,93.41
2022-08-07T03:55:46.072Z,92.94
2022-08-07T03:56:33.060Z,93.13
2022-08-07T03:58:34.574Z,93.32
2022-08-07T03:59:04.786Z,93.37
2022-08-07T03:59:28.563Z,93.60
2022-08-07T04:00:30.534Z,94.08
2022-08-07T04:01:28.484Z,93.89
2022-08-07T04:02:28.388Z,93.03
2022-08-07T04:03:28.336Z,93.51
2022-08-07T04:04:28.284Z,93.60
2022-08-07T04:05:39.769Z,94.13
2022-08-07T04:06:37.678Z,94.37
2022-08-07T04:07:36.142Z,93.70
2022-08-07T04:08:28.071Z,94.27
2022-08-07T04:09:29.470Z,94.08
2022-08-07T04:10:27.966Z,93.70
2022-08-07T04:12:27.890Z,94.08
2022-08-07T04:12:29.076Z,94.17
2022-08-07T04:13:27.912Z,94.17
2022-08-07T04:14:38.018Z,94.08
2022-08-07T04:15:27.698Z,93.70
2022-08-07T04:16:30.886Z,94.27
2022-08-07T04:18:11.178Z,93.70
2022-08-07T04:18:58.262Z,94.27
2022-08-07T04:19:51.253Z,94.27
2022-08-07T04:20:27.443Z,93.51
2022-08-07T04:21:27.376Z,93.89
2022-08-07T04:22:29.561Z,94.17
2022-08-07T04:23:43.920Z,94.51
2022-08-07T04:24:34.161Z,94.27
2022-08-07T04:25:29.294Z,94.74
2022-08-07T04:26:28.500Z,93.98
2022-08-07T04:27:27.061Z,94.74
2022-08-07T04:28:27.005Z,94.32
2022-08-07T04:29:26.950Z,94.32
2022-08-07T04:30:35.641Z,94.03
2022-08-07T04:31:38.473Z,94.22
2022-08-07T04:32:34.037Z,94.32
2022-08-07T04:33:26.754Z,93.55
2022-08-07T04:34:33.077Z,94.13
2022-08-07T04:35:26.638Z,93.65
2022-08-07T04:36:26.592Z,93.55
2022-08-07T04:37:26.524Z,93.55
2022-08-07T04:38:26.484Z,93.74
2022-08-07T04:39:26.516Z,94.32
2022-08-07T04:40:26.724Z,93.84
2022-08-07T04:41:26.327Z,93.93
2022-08-07T04:42:28.917Z,94.03
2022-08-07T04:43:53.518Z,93.74
2022-08-07T04:44:26.811Z,93.74
2022-08-07T04:46:00.295Z,93.84
2022-08-07T04:46:34.394Z,93.74
2022-08-07T04:47:56.919Z,93.84
2022-08-07T04:48:25.954Z,93.74
2022-08-07T04:49:25.882Z,93.65
2022-08-07T04:50:25.828Z,93.37
2022-08-07T04:51:27.288Z,93.65
2022-08-07T04:52:27.457Z,94.13
2022-08-07T04:53:40.071Z,94.51
2022-08-07T04:54:30.203Z,94.32
2022-08-07T04:58:09.900Z,94.03
2022-08-07T04:58:10.642Z,94.51
2022-08-07T04:58:10.818Z,94.89
2022-08-07T04:58:49.723Z,94.32
2022-08-07T05:00:10.906Z,94.13
2022-08-07T05:00:31.735Z,94.51
2022-08-07T05:01:30.412Z,94.70
2022-08-07T05:02:25.189Z,94.32
2022-08-07T05:04:00.317Z,94.17
2022-08-07T05:04:26.392Z,94.08
2022-08-07T05:05:53.344Z,94.17
2022-08-07T05:06:28.241Z,93.79
2022-08-07T05:07:30.561Z,93.70
2022-08-07T05:08:59.651Z,93.84
2022-08-07T05:09:27.968Z,93.88
2022-08-07T05:10:24.761Z,94.41
2022-08-07T05:11:26.221Z,93.93
2022-08-07T05:12:27.009Z,93.74
2022-08-07T05:14:52.166Z,94.03
2022-08-07T05:14:52.664Z,94.41
2022-08-07T05:15:24.500Z,94.17
2022-08-07T05:16:24.462Z,94.46
2022-08-07T05:17:52.803Z,94.17
2022-08-07T05:18:24.338Z,94.27
2022-08-07T05:19:25.688Z,93.88
2022-08-07T05:20:24.244Z,93.60
2022-08-07T05:21:59.365Z,94.17
2022-08-07T05:22:27.613Z,93.98
2022-08-07T05:23:30.907Z,93.60
2022-08-07T05:24:24.629Z,93.98
2022-08-07T05:25:35.573Z,93.22
2022-08-07T05:26:24.573Z,93.70
2022-08-07T05:28:02.770Z,93.60
2022-08-07T05:28:26.950Z,93.70
2022-08-07T05:29:23.754Z,93.60
2022-08-07T05:30:30.774Z,93.03
2022-08-07T05:31:23.663Z,93.41
2022-08-07T05:32:23.594Z,93.22
2022-08-07T05:33:23.542Z,93.22
2022-08-07T05:34:26.278Z,93.12
2022-08-07T05:35:33.897Z,93.84
2022-08-07T05:36:32.157Z,93.55
2022-08-07T05:37:25.485Z,93.46
2022-08-07T05:38:59.763Z,92.79
2022-08-07T05:40:06.323Z,92.50
2022-08-07T05:40:23.229Z,92.69
2022-08-07T05:41:23.174Z,92.79
2022-08-07T05:42:34.217Z,92.69
2022-08-07T05:44:01.142Z,92.69
2022-08-07T05:44:29.425Z,92.22
2022-08-07T05:45:46.988Z,92.12
2022-08-07T05:46:22.854Z,92.22
2022-08-07T05:47:38.354Z,92.41
2022-08-07T05:48:26.349Z,91.83
2022-08-07T05:49:22.693Z,92.12
2022-08-07T05:50:22.642Z,92.03
2022-08-07T05:51:22.603Z,92.32
2022-08-07T05:52:32.527Z,92.07
2022-08-07T05:54:12.531Z,92.07
2022-08-07T05:54:31.148Z,92.17
2022-08-07T05:55:22.381Z,91.50
2022-08-07T05:56:29.981Z,91.69
2022-08-07T05:57:22.269Z,91.78
2022-08-07T05:58:35.960Z,92.26
2022-08-07T05:59:22.166Z,91.78
2022-08-07T06:00:22.110Z,91.31
2022-08-07T06:01:22.135Z,91.41
2022-08-07T06:02:28.420Z,91.50
2022-08-07T06:03:21.970Z,91.69
2022-08-07T06:04:21.901Z,91.60
2022-08-07T06:05:28.214Z,91.60
2022-08-07T06:06:21.798Z,91.12
2022-08-07T06:08:09.073Z,91.31
2022-08-07T06:08:31.302Z,91.50
2022-08-07T06:09:21.698Z,91.60
2022-08-07T06:10:21.587Z,91.50
2022-08-07T06:11:21.550Z,91.55
2022-08-07T06:12:27.819Z,91.16
2022-08-07T06:14:10.986Z,91.45
2022-08-07T06:14:28.866Z,91.36
2022-08-07T06:15:21.325Z,91.64
2022-08-07T06:16:21.277Z,91.45
2022-08-07T06:17:26.437Z,91.45
2022-08-07T06:18:21.164Z,91.36
2022-08-07T06:19:57.900Z,91.45
2022-08-07T06:20:31.863Z,91.55
2022-08-07T06:22:15.158Z,91.55
2022-08-07T06:22:24.062Z,91.45
2022-08-07T06:23:46.068Z,91.36
2022-08-07T06:24:45.839Z,91.36
2022-08-07T06:25:20.821Z,90.97
2022-08-07T06:26:20.756Z,90.59
2022-08-07T06:27:22.908Z,90.40
2022-08-07T06:28:27.942Z,90.11
2022-08-07T06:29:20.592Z,90.11
2022-08-07T06:30:24.241Z,90.11
2022-08-07T06:31:20.491Z,89.97
2022-08-07T06:32:20.450Z,90.16
2022-08-07T06:33:20.395Z,90.16
2022-08-07T06:34:20.814Z,90.25
2022-08-07T06:35:20.276Z,90.25
2022-08-07T06:36:27.572Z,89.59
2022-08-07T06:37:20.540Z,90.06
2022-08-07T06:38:20.842Z,89.68
2022-08-07T06:40:17.162Z,89.87
2022-08-07T06:40:21.192Z,90.35
2022-08-07T06:41:47.630Z,89.49
2022-08-07T06:42:19.911Z,89.59
2022-08-07T06:43:21.652Z,89.78
2022-08-07T06:44:19.805Z,89.59
2022-08-07T06:45:19.753Z,89.97
2022-08-07T06:46:20.400Z,89.53
2022-08-07T06:47:20.951Z,89.44
2022-08-07T06:48:24.830Z,88.96
2022-08-07T06:49:19.545Z,89.44
2022-08-07T06:50:19.494Z,89.73
2022-08-07T06:51:31.268Z,89.53
2022-08-07T06:52:31.907Z,89.63
2022-08-07T06:54:11.910Z,89.25
2022-08-07T06:55:33.520Z,88.96
2022-08-07T06:55:34.546Z,89.06
2022-08-07T06:56:19.181Z,88.68
2022-08-07T06:57:19.127Z,88.87
2022-08-07T06:58:21.576Z,88.48
2022-08-07T07:00:12.466Z,88.58
2022-08-07T07:00:18.986Z,88.39
2022-08-07T07:01:19.022Z,88.62
2022-08-07T07:02:49.200Z,88.53
2022-08-07T07:03:26.436Z,88.15
2022-08-07T07:04:28.546Z,88.43
2022-08-07T07:06:03.947Z,88.62
2022-08-07T07:06:23.926Z,88.24
2022-08-07T07:07:58.355Z,88.43
2022-08-07T07:08:25.659Z,88.24
2022-08-07T07:09:18.505Z,87.76
2022-08-07T07:10:21.336Z,87.95
2022-08-07T07:12:08.178Z,87.86
2022-08-07T07:12:25.641Z,87.86
2022-08-07T07:13:56.657Z,87.95
2022-08-07T07:14:18.249Z,88.00
2022-08-07T07:15:23.803Z,87.23
2022-08-07T07:16:19.840Z,87.38
2022-08-07T07:17:18.110Z,87.62
2022-08-07T07:18:33.030Z,87.23
2022-08-07T07:19:57.014Z,86.85
2022-08-07T07:20:17.938Z,86.76
2022-08-07T07:21:19.720Z,86.94
2022-08-07T07:22:35.765Z,86.47
2022-08-07T07:24:06.230Z,86.76
2022-08-07T07:24:17.747Z,86.76
2022-08-07T07:26:34.046Z,86.37
2022-08-07T07:26:34.549Z,86.32
2022-08-07T07:27:17.631Z,86.22
2022-08-07T07:28:29.846Z,86.32
2022-08-07T07:29:55.756Z,86.13
2022-08-07T07:30:32.500Z,85.75
2022-08-07T07:31:21.618Z,85.94
2022-08-07T07:32:17.321Z,85.75
2022-08-07T07:33:17.282Z,86.04
2022-08-07T07:34:17.219Z,85.27
2022-08-07T07:35:17.182Z,85.75
2022-08-07T07:36:17.248Z,85.17
2022-08-07T07:37:45.075Z,85.36
2022-08-07T07:38:17.011Z,85.41
2022-08-07T07:39:16.993Z,85.41
2022-08-07T07:40:16.983Z,84.92
2022-08-07T07:41:16.889Z,84.92
2022-08-07T07:42:17.637Z,84.64
2022-08-07T07:43:27.525Z,85.12
2022-08-07T07:44:21.655Z,84.35
2022-08-07T07:45:16.655Z,83.78
2022-08-07T07:46:38.576Z,84.11
2022-08-07T07:47:23.658Z,84.16
2022-08-07T07:48:35.101Z,84.49
2022-08-07T07:50:33.455Z,84.20
2022-08-07T07:50:34.647Z,84.11
2022-08-07T07:51:16.348Z,84.11
2022-08-07T07:52:16.433Z,83.53
2022-08-07T07:53:23.290Z,83.63
2022-08-07T07:54:16.200Z,83.76
2022-08-07T07:55:16.147Z,83.05
2022-08-07T07:56:16.092Z,83.00
2022-08-07T07:57:16.056Z,83.00
2022-08-07T07:58:16.006Z,82.90
2022-08-07T07:59:15.944Z,82.71
2022-08-07T08:00:28.849Z,82.52
2022-08-07T08:02:01.964Z,82.46
2022-08-07T08:02:34.093Z,82.08
2022-08-07T08:03:16.934Z,81.89
2022-08-07T08:04:15.773Z,82.08
2022-08-07T08:05:15.636Z,81.70
2022-08-07T08:06:15.585Z,81.51
2022-08-07T08:07:15.534Z,81.89
2022-08-07T08:08:35.470Z,81.60
2022-08-07T08:09:15.436Z,81.41
2022-08-07T08:10:35.527Z,81.41
2022-08-07T08:11:17.836Z,81.07
2022-08-07T08:12:31.219Z,80.40
2022-08-07T08:13:15.549Z,80.78
2022-08-07T08:14:15.193Z,81.07
2022-08-07T08:15:15.195Z,80.58
2022-08-07T08:16:15.083Z,80.20
2022-08-07T08:17:57.650Z,79.82
2022-08-07T08:18:17.290Z,79.57
2022-08-07T08:19:17.920Z,79.57
2022-08-07T08:20:18.222Z,79.19
2022-08-07T08:21:14.830Z,78.13
2022-08-07T08:22:14.782Z,77.50
2022-08-07T08:23:14.732Z,77.21
2022-08-07T08:24:36.064Z,76.96
2022-08-07T08:25:25.096Z,75.65
2022-08-07T08:26:14.585Z,74.76
2022-08-07T08:27:14.531Z,72.49
2022-08-07T08:28:16.731Z,70.02
2022-08-07T08:29:14.430Z,68.80
2022-08-07T08:30:17.468Z,68.07
2022-08-07T08:31:15.819Z,67.07
2022-08-07T08:32:18.936Z,65.08
2022-08-07T08:33:16.199Z,63.56
2022-08-07T08:34:26.799Z,62.34
2022-08-07T08:35:14.149Z,61.50
2022-08-07T08:36:14.084Z,60.57
2022-08-07T08:37:59.055Z,60.98
2022-08-07T08:38:13.987Z,59.36
2022-08-07T08:39:15.318Z,59.36
2022-08-07T08:40:16.393Z,58.42
2022-08-07T08:41:13.841Z,57.58
2022-08-07T08:42:13.807Z,57.78
2022-08-07T08:43:13.746Z,56.71
2022-08-07T08:44:13.710Z,56.13
2022-08-07T08:45:13.815Z,55.67
2022-08-07T08:46:13.602Z,55.50
2022-08-07T08:47:13.553Z,55.24
2022-08-07T08:48:13.521Z,54.32
2022-08-07T08:49:13.458Z,53.47
2022-08-07T08:50:17.542Z,51.82
2022-08-07T08:51:14.211Z,51.84
2022-08-07T08:52:16.417Z,51.51
2022-08-07T08:53:13.270Z,50.26
2022-08-07T08:54:13.237Z,49.76
2022-08-07T08:55:21.145Z,48.54
2022-08-07T08:56:13.149Z,46.92
2022-08-07T08:57:13.088Z,45.57
2022-08-07T08:58:20.355Z,45.10
2022-08-07T08:59:16.319Z,44.13
2022-08-07T09:00:12.958Z,44.38
2022-08-07T09:01:15.038Z,43.96
2022-08-07T09:02:13.247Z,44.45
2022-08-07T09:03:12.827Z,44.34
2022-08-07T09:04:13.429Z,45.02
2022-08-07T09:05:14.675Z,45.39
2022-08-07T09:06:12.712Z,44.90
2022-08-07T09:07:12.659Z,46.14
2022-08-07T09:08:12.618Z,46.24
2022-08-07T09:09:21.170Z,44.95
2022-08-07T09:10:12.535Z,45.34
2022-08-07T09:11:14.087Z,46.22
2022-08-07T09:12:31.262Z,45.15
2022-08-07T09:13:14.912Z,44.56
2022-08-07T09:14:12.386Z,44.56
2022-08-07T09:16:20.425Z,45.42
2022-08-07T09:16:22.309Z,45.15
2022-08-07T09:17:12.247Z,44.93
2022-08-07T09:18:13.631Z,44.93
2022-08-07T09:19:50.747Z,45.03
2022-08-07T09:20:34.766Z,45.00
2022-08-07T09:21:13.752Z,46.34
2022-08-07T09:24:29.309Z,45.47
2022-08-07T09:24:33.424Z,46.01
2022-08-07T09:24:54.144Z,45.45
2022-08-07T09:25:17.467Z,47.05
2022-08-07T09:26:11.856Z,47.15
2022-08-07T09:27:13.471Z,47.08
2022-08-07T09:30:02.018Z,46.88
2022-08-07T09:30:06.371Z,46.40
2022-08-07T09:30:11.683Z,46.11
2022-08-07T09:31:11.656Z,46.61
2022-08-07T09:32:17.318Z,46.81
2022-08-07T09:33:16.896Z,47.10
2022-08-07T09:34:11.514Z,46.88
2022-08-07T09:36:04.168Z,46.01
2022-08-07T09:36:11.425Z,46.57
2022-08-07T09:37:11.393Z,47.15
2022-08-07T09:38:11.341Z,47.32
2022-08-07T09:39:53.035Z,47.71
2022-08-07T09:40:11.294Z,47.61
2022-08-07T09:41:11.211Z,47.20
2022-08-07T09:42:11.900Z,46.72
2022-08-07T09:43:11.126Z,46.81
2022-08-07T09:44:30.082Z,46.42
2022-08-07T09:47:23.554Z,46.15
2022-08-07T09:47:27.797Z,47.71
2022-08-07T09:47:51.688Z,46.94
2022-08-07T09:48:11.873Z,46.28
2022-08-07T09:50:00.406Z,46.28
2022-08-07T09:50:19.054Z,45.32
2022-08-07T09:51:26.079Z,45.25
2022-08-07T09:52:33.318Z,45.37
2022-08-07T09:53:11.179Z,44.90
2022-08-07T09:54:11.562Z,44.15
2022-08-07T09:55:17.395Z,44.46
2022-08-07T09:56:10.563Z,42.41
2022-08-07T09:57:12.979Z,42.12
2022-08-07T09:58:10.480Z,42.34
2022-08-07T09:59:14.103Z,41.15
2022-08-07T10:00:14.845Z,39.57
2022-08-07T10:01:14.679Z,40.50
2022-08-07T10:02:10.324Z,42.25
2022-08-07T10:04:06.620Z,43.25
2022-08-07T10:04:14.002Z,43.08
2022-08-07T10:05:12.504Z,41.93
2022-08-07T10:06:17.829Z,41.35
2022-08-07T10:07:24.655Z,41.95
2022-08-07T10:08:10.053Z,41.77
2022-08-07T10:09:10.010Z,41.31
2022-08-07T10:10:21.024Z,41.02
2022-08-07T10:11:16.994Z,39.76
2022-08-07T10:12:18.158Z,38.40
2022-08-07T10:13:15.694Z,38.59
2022-08-07T10:14:11.230Z,38.02
2022-08-07T10:15:15.210Z,38.02
2022-08-07T10:16:09.772Z,38.51
2022-08-07T10:17:14.072Z,38.63
2022-08-07T10:18:09.635Z,38.82
2022-08-07T10:19:11.510Z,38.24
2022-08-07T10:20:13.046Z,38.06
2022-08-07T10:21:19.785Z,36.87
2022-08-07T10:22:15.799Z,37.95
2022-08-07T10:23:09.745Z,37.37
2022-08-07T10:24:10.033Z,37.27
2022-08-07T10:25:09.345Z,37.57
2022-08-07T10:26:09.303Z,38.16
2022-08-07T10:27:10.435Z,37.59
2022-08-07T10:28:09.251Z,38.18
2022-08-07T10:29:09.190Z,37.59
2022-08-07T10:30:12.177Z,36.41
2022-08-07T10:31:11.018Z,37.27
2022-08-07T10:32:16.444Z,37.47
2022-08-07T10:33:09.029Z,38.06
2022-08-07T10:34:15.355Z,37.77
2022-08-07T10:35:12.353Z,37.18
2022-08-07T10:36:11.438Z,37.57
2022-08-07T10:37:12.434Z,38.06
2022-08-07T10:38:35.186Z,38.16
2022-08-07T10:39:08.823Z,37.57
2022-08-07T10:40:08.876Z,37.18
2022-08-07T10:41:08.690Z,37.57
2022-08-07T10:42:09.793Z,37.18
2022-08-07T10:43:08.622Z,37.47
2022-08-07T10:44:08.566Z,37.19
2022-08-07T10:45:08.542Z,36.32
2022-08-07T10:46:08.495Z,36.61
2022-08-07T10:47:11.951Z,36.04
2022-08-07T10:48:09.721Z,36.14
2022-08-07T10:49:08.364Z,36.53
2022-08-07T10:50:08.324Z,35.96
2022-08-07T10:51:16.252Z,35.66
2022-08-07T10:52:13.200Z,35.65
2022-08-07T10:53:09.067Z,35.85
2022-08-07T10:54:13.230Z,36.04
2022-08-07T10:55:26.802Z,36.33
2022-08-07T10:56:08.111Z,34.86
2022-08-07T10:57:08.060Z,34.75
2022-08-07T10:58:08.039Z,35.69
2022-08-07T10:59:07.996Z,36.07
2022-08-07T11:00:08.831Z,35.77
2022-08-07T11:01:11.638Z,37.43
2022-08-07T11:02:27.300Z,36.24
2022-08-07T11:03:11.340Z,37.91
2022-08-07T11:04:16.764Z,38.32
2022-08-07T11:05:10.290Z,37.43
2022-08-07T11:06:07.705Z,37.14
2022-08-07T11:07:24.833Z,37.02
2022-08-07T11:08:08.099Z,38.09
2022-08-07T11:09:11.509Z,38.18
2022-08-07T11:10:10.896Z,38.38
2022-08-07T11:11:07.502Z,38.89
2022-08-07T11:12:07.447Z,38.90
2022-08-07T11:13:07.442Z,38.90
2022-08-07T11:14:44.284Z,39.70
2022-08-07T11:15:14.785Z,38.34
2022-08-07T11:16:07.453Z,37.55
2022-08-07T11:17:09.120Z,36.75
2022-08-07T11:18:07.245Z,37.95
2022-08-07T11:19:07.198Z,37.65
2022-08-07T11:20:07.278Z,37.87
2022-08-07T11:21:07.107Z,37.87
2022-08-07T11:22:07.074Z,38.08
2022-08-07T11:23:07.284Z,38.10
2022-08-07T11:24:08.475Z,36.82
2022-08-07T11:25:07.435Z,36.65
2022-08-07T11:26:07.174Z,36.66
2022-08-07T11:27:06.844Z,36.57
2022-08-07T11:28:07.059Z,35.96
2022-08-07T11:29:41.170Z,36.74
2022-08-07T11:30:18.636Z,36.65
2022-08-07T11:31:08.935Z,35.97
2022-08-07T11:32:06.676Z,36.18
2022-08-07T11:33:07.894Z,36.09
2022-08-07T11:34:06.608Z,35.70
2022-08-07T11:35:06.546Z,35.80
2022-08-07T11:36:10.034Z,35.89
2022-08-07T11:37:06.789Z,35.70
2022-08-07T11:38:12.614Z,35.99
2022-08-07T11:39:06.811Z,35.97
2022-08-07T11:40:06.408Z,35.68
2022-08-07T11:41:06.604Z,35.39
2022-08-07T11:42:06.297Z,35.58
2022-08-07T11:43:06.269Z,35.58
2022-08-07T11:44:12.220Z,35.97
2022-08-07T11:45:06.174Z,36.57
2022-08-07T11:46:06.132Z,36.47
2022-08-07T11:47:06.151Z,35.78
2022-08-07T11:48:17.982Z,35.86
2022-08-07T11:49:50.065Z,35.49
2022-08-07T11:50:30.723Z,36.08
2022-08-07T11:51:09.155Z,36.27
2022-08-07T11:52:05.903Z,36.55
2022-08-07T11:53:05.837Z,35.86
2022-08-07T11:54:10.274Z,35.85
2022-08-07T11:55:13.089Z,35.94
2022-08-07T11:56:25.759Z,36.25
2022-08-07T11:57:05.714Z,35.86
2022-08-07T11:58:05.640Z,35.86
2022-08-07T12:00:08.225Z,35.86
2022-08-07T12:00:11.552Z,36.35
2022-08-07T12:01:06.790Z,35.86
2022-08-07T12:02:05.585Z,35.47
2022-08-07T12:03:05.444Z,35.96
2022-08-07T12:04:05.403Z,35.75
2022-08-07T12:05:09.160Z,35.25
2022-08-07T12:06:39.062Z,35.65
2022-08-07T12:07:09.047Z,36.25
2022-08-07T12:08:05.242Z,35.55
2022-08-07T12:09:05.214Z,34.94
2022-08-07T12:10:05.771Z,35.30
2022-08-07T12:11:20.285Z,35.99
2022-08-07T12:12:10.001Z,35.38
2022-08-07T12:13:11.562Z,37.43
2022-08-07T12:14:05.013Z,37.55
2022-08-07T12:15:04.993Z,35.32
2022-08-07T12:16:07.089Z,35.52
2022-08-07T12:17:04.877Z,35.83
2022-08-07T12:18:08.289Z,36.32
2022-08-07T12:19:04.836Z,35.73
2022-08-07T12:20:09.493Z,35.35
2022-08-07T12:21:04.739Z,35.25
2022-08-07T12:22:37.637Z,34.67
2022-08-07T12:23:09.118Z,35.55
2022-08-07T12:24:05.013Z,35.94
2022-08-07T12:25:07.816Z,35.27
2022-08-07T12:26:29.080Z,34.67
2022-08-07T12:27:04.502Z,35.25
2022-08-07T12:28:09.458Z,35.35
2022-08-07T12:29:04.460Z,34.96
2022-08-07T12:30:04.390Z,36.04
2022-08-07T12:31:04.368Z,35.86
2022-08-07T12:32:04.782Z,35.37
2022-08-07T12:33:18.943Z,34.88
2022-08-07T12:34:04.328Z,34.80
2022-08-07T12:35:05.707Z,34.80
2022-08-07T12:36:04.147Z,34.31
2022-08-07T12:37:08.640Z,34.70
2022-08-07T12:38:10.759Z,34.51
2022-08-07T12:39:43.137Z,35.00
2022-08-07T12:40:04.035Z,34.80
2022-08-07T12:41:04.012Z,34.62
2022-08-07T12:42:03.899Z,34.81
2022-08-07T12:43:09.505Z,34.80
2022-08-07T12:44:06.372Z,33.84
2022-08-07T12:45:05.574Z,34.01
2022-08-07T12:46:03.770Z,34.70
2022-08-07T12:47:06.395Z,34.80
2022-08-07T12:48:03.676Z,34.31
2022-08-07T12:49:09.863Z,34.81
2022-08-07T12:50:05.112Z,34.70
2022-08-07T12:51:17.297Z,34.90
2022-08-07T12:52:14.042Z,34.90